Time;durP1;ratioP1;P1;durP2;ratioP2;P2;SDS_P1;SDS_P2;PMS_P1;PMS_P2;Temp;Humidity;BMP_temperature;BMP_pressure;BME280_temperature;BME280_humidity;BME280_pressure;Samples;Min_cycle;Max_cycle;Signal;HPM_P1;HPM_P2
2022/03/29 00:01:45;;;;;;;;;;;9.90;71.40;;;;;;8409941;28;19967;-70
2022/03/29 00:05:47;;;;;;;;;;;9.90;71.60;;;;;;8405707;28;19932;-71
2022/03/29 00:09:49;;;;;;;;;;;9.90;72.00;;;;;;8387605;28;19931;-70
2022/03/29 00:13:50;;;;;;;;;;;9.90;72.20;;;;;;8415537;28;20353;-70
2022/03/29 00:17:52;;;;;;;;;;;9.90;73.00;;;;;;8403868;28;20299;-70
2022/03/29 00:21:57;;;;;;;;;;;9.90;73.30;;;;;;8395346;28;19924;-70
2022/03/29 00:25:58;;;;;;;;;;;9.90;73.80;;;;;;8400356;28;19927;-70
2022/03/29 00:30:00;;;;;;;;;;;9.90;74.00;;;;;;8400872;28;20318;-71
2022/03/29 00:34:01;;;;;;;;;;;9.90;74.50;;;;;;8385457;28;19925;-70
2022/03/29 00:38:03;;;;;;;;;;;9.90;75.00;;;;;;8395356;28;19924;-70
2022/03/29 00:42:05;;;;;;;;;;;9.80;76.10;;;;;;8412595;28;19931;-71
2022/03/29 00:46:06;;;;;;;;;;;9.80;76.30;;;;;;8407091;28;20284;-70
2022/03/29 00:50:08;;;;;;;;;;;9.80;76.30;;;;;;8403930;28;20398;-70
2022/03/29 00:54:11;;;;;;;;;;;9.80;76.70;;;;;;8397201;28;20269;-70
2022/03/29 00:58:14;;;;;;;;;;;9.80;77.00;;;;;;8404983;28;19951;-70
2022/03/29 01:02:16;;;;;;;;;;;9.80;77.10;;;;;;8396620;28;19924;-70
2022/03/29 01:06:17;;;;;;;;;;;9.80;77.20;;;;;;8407540;28;19924;-71
2022/03/29 01:10:19;;;;;;;;;;;9.80;77.40;;;;;;8403743;28;19924;-70
2022/03/29 01:14:21;;;;;;;;;;;9.80;77.40;;;;;;8412460;28;19936;-70
2022/03/29 01:18:26;;;;;;;;;;;9.70;77.60;;;;;;8411229;28;19939;-70
2022/03/29 01:22:29;;;;;;;;;;;9.70;77.90;;;;;;8408914;28;19931;-70
2022/03/29 01:26:31;;;;;;;;;;;9.70;78.30;;;;;;8410450;28;19929;-70
2022/03/29 01:30:33;;;;;;;;;;;9.60;78.60;;;;;;8410454;28;19939;-70
2022/03/29 01:34:37;;;;;;;;;;;9.60;78.80;;;;;;8411497;28;19924;-70
2022/03/29 01:38:40;;;;;;;;;;;9.50;78.90;;;;;;8409059;28;20312;-70
2022/03/29 01:42:47;;;;;;;;;;;9.50;79.50;;;;;;8394635;28;19935;-70
2022/03/29 01:46:49;;;;;;;;;;;9.40;79.70;;;;;;8398997;28;19928;-70
2022/03/29 01:50:51;;;;;;;;;;;9.40;80.80;;;;;;8402383;28;20240;-70
2022/03/29 01:54:53;;;;;;;;;;;9.30;79.70;;;;;;8421168;28;19939;-70
2022/03/29 01:58:54;;;;;;;;;;;9.30;80.20;;;;;;8407919;28;20021;-70
2022/03/29 02:02:56;;;;;;;;;;;9.20;80.20;;;;;;8392926;28;19943;-70
2022/03/29 02:06:59;;;;;;;;;;;9.20;80.40;;;;;;8390297;28;19924;-70
2022/03/29 02:11:01;;;;;;;;;;;9.10;80.90;;;;;;8394398;28;19932;-70
2022/03/29 02:15:03;;;;;;;;;;;9.00;81.10;;;;;;8412928;28;19931;-70
2022/03/29 02:19:08;;;;;;;;;;;9.00;81.50;;;;;;8396428;28;19925;-70
2022/03/29 02:23:15;;;;;;;;;;;9.00;81.70;;;;;;8393553;28;19928;-70
2022/03/29 02:27:17;;;;;;;;;;;9.00;81.80;;;;;;8400323;28;19924;-70
2022/03/29 02:31:19;;;;;;;;;;;9.00;81.90;;;;;;8411900;28;19932;-70
2022/03/29 02:35:21;;;;;;;;;;;9.00;81.80;;;;;;8399180;28;19978;-70
2022/03/29 02:39:22;;;;;;;;;;;9.00;81.80;;;;;;8418380;28;19924;-70
2022/03/29 02:43:27;;;;;;;;;;;9.00;81.80;;;;;;8401690;28;19929;-70
2022/03/29 02:47:29;;;;;;;;;;;9.00;82.10;;;;;;8406602;28;20360;-70
2022/03/29 02:51:30;;;;;;;;;;;8.90;81.90;;;;;;8412433;28;19931;-70
2022/03/29 02:55:35;;;;;;;;;;;8.90;82.20;;;;;;8403941;28;19924;-70
2022/03/29 03:00:02;;;;;;;;;;;8.90;82.50;;;;;;8414884;28;19931;-70
2022/03/29 03:04:03;;;;;;;;;;;8.80;82.90;;;;;;8415810;28;19932;-70
2022/03/29 03:08:05;;;;;;;;;;;8.70;83.20;;;;;;8397211;28;20300;-70
2022/03/29 03:12:07;;;;;;;;;;;8.60;83.50;;;;;;8412542;28;19924;-70
2022/03/29 03:16:09;;;;;;;;;;;8.50;83.70;;;;;;8413713;28;19924;-70
2022/03/29 03:20:11;;;;;;;;;;;8.50;83.90;;;;;;8409787;28;19930;-70
2022/03/29 03:24:13;;;;;;;;;;;8.50;83.90;;;;;;8413999;28;19958;-70
2022/03/29 03:28:15;;;;;;;;;;;8.50;84.30;;;;;;8402994;28;19924;-70
2022/03/29 03:32:16;;;;;;;;;;;8.40;84.80;;;;;;8410711;28;19924;-70
2022/03/29 03:36:18;;;;;;;;;;;8.50;84.20;;;;;;8395033;28;19968;-70
2022/03/29 03:40:20;;;;;;;;;;;8.50;84.40;;;;;;8419173;28;19932;-70
2022/03/29 03:44:22;;;;;;;;;;;8.40;84.60;;;;;;8405404;28;19961;-70
2022/03/29 03:48:24;;;;;;;;;;;8.40;84.80;;;;;;8403462;28;19924;-70
2022/03/29 03:52:26;;;;;;;;;;;8.40;85.10;;;;;;8385826;28;19924;-70
2022/03/29 03:56:27;;;;;;;;;;;8.40;84.80;;;;;;8400377;28;19935;-70
2022/03/29 04:00:29;;;;;;;;;;;8.40;85.00;;;;;;8408915;28;19959;-70
2022/03/29 04:04:31;;;;;;;;;;;8.40;84.90;;;;;;8418596;28;19928;-70
2022/03/29 04:08:32;;;;;;;;;;;8.40;85.20;;;;;;8415719;28;19924;-70
2022/03/29 04:12:35;;;;;;;;;;;8.30;85.40;;;;;;8420032;28;19931;-70
2022/03/29 04:16:36;;;;;;;;;;;8.30;85.50;;;;;;8418434;28;19928;-70
2022/03/29 04:20:38;;;;;;;;;;;8.20;85.80;;;;;;8414031;28;19924;-70
2022/03/29 04:24:40;;;;;;;;;;;8.10;85.90;;;;;;8425121;28;19931;-70
2022/03/29 04:28:41;;;;;;;;;;;8.10;86.20;;;;;;8419155;28;19924;-70
2022/03/29 04:32:43;;;;;;;;;;;8.10;86.40;;;;;;8414000;28;19932;-69
2022/03/29 04:36:45;;;;;;;;;;;8.10;86.50;;;;;;8414643;28;19924;-70
2022/03/29 04:40:47;;;;;;;;;;;8.10;86.70;;;;;;8415737;28;19931;-70
2022/03/29 04:44:48;;;;;;;;;;;8.10;86.70;;;;;;8403827;28;20288;-70
2022/03/29 04:48:54;;;;;;;;;;;8.20;86.90;;;;;;8414151;28;20287;-70
2022/03/29 04:52:55;;;;;;;;;;;8.20;87.00;;;;;;8405841;28;19932;-70
2022/03/29 04:56:57;;;;;;;;;;;8.30;86.70;;;;;;8391519;28;19936;-70
2022/03/29 05:00:59;;;;;;;;;;;8.30;87.00;;;;;;8419744;28;20425;-70
2022/03/29 05:05:01;;;;;;;;;;;8.30;86.90;;;;;;8409306;28;19932;-70
2022/03/29 05:09:06;;;;;;;;;;;8.30;87.30;;;;;;8412712;28;19924;-70
2022/03/29 05:13:09;;;;;;;;;;;8.20;87.30;;;;;;8423409;28;19924;-70
2022/03/29 05:17:11;;;;;;;;;;;8.10;87.90;;;;;;8416942;28;19928;-70
2022/03/29 05:21:13;;;;;;;;;;;8.00;87.90;;;;;;8420940;28;19924;-70
2022/03/29 05:25:15;;;;;;;;;;;8.00;88.30;;;;;;8404106;28;19955;-70
2022/03/29 05:29:18;;;;;;;;;;;7.90;88.30;;;;;;8422030;28;19943;-70
2022/03/29 05:33:19;;;;;;;;;;;7.90;88.50;;;;;;8395715;28;20076;-69
2022/03/29 05:37:24;;;;;;;;;;;7.90;88.70;;;;;;8423400;28;19932;-70
2022/03/29 05:41:25;;;;;;;;;;;7.90;89.00;;;;;;8399504;28;19931;-70
2022/03/29 05:50:13;;;;;;;;;;;7.90;89.70;;;;;;8347056;28;19925;-70
2022/03/29 05:54:14;;;;;;;;;;;7.80;90.00;;;;;;8350991;28;20356;-70
2022/03/29 05:58:17;;;;;;;;;;;7.80;90.10;;;;;;8351707;28;19939;-70
2022/03/29 06:02:18;;;;;;;;;;;7.80;90.20;;;;;;8353805;28;19925;-70
2022/03/29 06:06:20;;;;;;;;;;;7.80;90.20;;;;;;8345284;28;19961;-70
2022/03/29 06:10:22;;;;;;;;;;;7.90;90.30;;;;;;8339966;28;19932;-70
2022/03/29 06:14:24;;;;;;;;;;;7.90;90.40;;;;;;8346057;28;19956;-70
2022/03/29 06:18:26;;;;;;;;;;;7.90;90.60;;;;;;8352187;28;20007;-70
2022/03/29 06:22:28;;;;;;;;;;;7.90;90.80;;;;;;8358348;28;19929;-70
2022/03/29 06:26:30;;;;;;;;;;;7.90;91.00;;;;;;8358229;28;19929;-70
2022/03/29 06:30:32;;;;;;;;;;;7.90;91.30;;;;;;8359363;28;19932;-70
2022/03/29 06:34:34;;;;;;;;;;;7.80;91.60;;;;;;8358800;28;19936;-70
2022/03/29 06:38:45;;;;;;;;;;;7.80;91.80;;;;;;8355920;28;19991;-70
2022/03/29 06:42:47;;;;;;;;;;;7.80;91.90;;;;;;8351638;28;19962;-70
2022/03/29 06:46:49;;;;;;;;;;;7.90;92.10;;;;;;8367593;28;19931;-70
2022/03/29 06:50:51;;;;;;;;;;;7.90;92.30;;;;;;8400340;28;19924;-70
2022/03/29 06:54:53;;;;;;;;;;;7.80;92.40;;;;;;8417946;28;20458;-70
2022/03/29 06:58:54;;;;;;;;;;;7.80;92.90;;;;;;8418391;28;19932;-72
2022/03/29 07:02:56;;;;;;;;;;;7.80;93.40;;;;;;8420267;28;19931;-70
2022/03/29 07:06:58;;;;;;;;;;;7.80;93.50;;;;;;8420794;28;19928;-72
2022/03/29 07:11:16;;;;;;;;;;;7.70;93.50;;;;;;8421725;28;19935;-70
2022/03/29 07:15:18;;;;;;;;;;;7.80;93.70;;;;;;8421474;28;20375;-70
2022/03/29 07:19:19;;;;;;;;;;;7.90;93.70;;;;;;8418732;28;19924;-70
2022/03/29 07:23:21;;;;;;;;;;;7.90;93.70;;;;;;8421385;28;20031;-70
2022/03/29 07:27:23;;;;;;;;;;;8.00;94.00;;;;;;8421997;28;20235;-70
2022/03/29 07:31:24;;;;;;;;;;;8.00;94.10;;;;;;8423126;28;20553;-70
2022/03/29 07:35:28;;;;;;;;;;;8.10;94.20;;;;;;8421996;28;19978;-70
2022/03/29 07:39:30;;;;;;;;;;;8.10;94.20;;;;;;8417304;28;20277;-70
2022/03/29 07:43:31;;;;;;;;;;;8.20;94.50;;;;;;8401590;28;19924;-70
2022/03/29 07:47:34;;;;;;;;;;;8.20;94.70;;;;;;8400166;28;19947;-70
2022/03/29 07:51:56;;;;;;;;;;;8.20;94.90;;;;;;8414246;28;20321;-70
2022/03/29 07:55:57;;;;;;;;;;;8.20;95.20;;;;;;8419031;28;19946;-70
2022/03/29 07:59:59;;;;;;;;;;;8.30;95.40;;;;;;8420539;28;20367;-70
2022/03/29 08:04:01;;;;;;;;;;;8.30;95.60;;;;;;8424640;28;19931;-70
2022/03/29 08:08:03;;;;;;;;;;;8.30;95.70;;;;;;8421165;28;19978;-70
2022/03/29 08:12:05;;;;;;;;;;;8.40;95.90;;;;;;8404508;28;19928;-70
2022/03/29 08:16:06;;;;;;;;;;;8.50;96.30;;;;;;8408875;28;19932;-70
2022/03/29 08:20:08;;;;;;;;;;;8.60;96.20;;;;;;8401963;28;20325;-69
2022/03/29 08:24:10;;;;;;;;;;;8.70;96.40;;;;;;8418939;28;19955;-69
2022/03/29 08:28:12;;;;;;;;;;;8.80;96.30;;;;;;8419878;28;19924;-70
2022/03/29 08:32:14;;;;;;;;;;;8.90;96.60;;;;;;8423519;28;19978;-70
2022/03/29 08:36:16;;;;;;;;;;;8.90;96.30;;;;;;8423208;28;19932;-70
2022/03/29 08:40:21;;;;;;;;;;;8.90;96.40;;;;;;8422749;28;20376;-70
2022/03/29 08:44:25;;;;;;;;;;;8.90;96.70;;;;;;8417263;28;20413;-70
2022/03/29 08:48:27;;;;;;;;;;;9.00;97.30;;;;;;8418398;28;19931;-70
2022/03/29 08:52:29;;;;;;;;;;;9.10;97.50;;;;;;8414117;28;19935;-70
2022/03/29 08:56:31;;;;;;;;;;;9.10;97.40;;;;;;8416286;28;19925;-70
2022/03/29 09:00:35;;;;;;;;;;;9.10;97.10;;;;;;8410848;28;20007;-70
2022/03/29 09:04:37;;;;;;;;;;;9.10;97.10;;;;;;8417974;28;19932;-70
2022/03/29 09:08:45;;;;;;;;;;;9.20;97.40;;;;;;8416029;28;19924;-69
2022/03/29 09:12:47;;;;;;;;;;;9.30;97.80;;;;;;8412871;28;19928;-70
2022/03/29 09:16:51;;;;;;;;;;;9.30;98.00;;;;;;8421180;28;19932;-70
2022/03/29 09:21:09;;;;;;;;;;;9.50;98.10;;;;;;8419590;28;20024;-70
2022/03/29 09:25:14;;;;;;;;;;;9.60;98.10;;;;;;8420496;28;19939;-70
2022/03/29 09:29:20;;;;;;;;;;;9.60;98.30;;;;;;8417168;28;20288;-70
2022/03/29 09:33:32;;;;;;;;;;;9.70;98.10;;;;;;8414169;28;19976;-70
2022/03/29 09:37:34;;;;;;;;;;;9.70;98.20;;;;;;8398236;28;20339;-70
2022/03/29 09:41:39;;;;;;;;;;;9.80;98.40;;;;;;8418435;28;19924;-70
2022/03/29 09:45:48;;;;;;;;;;;9.80;98.50;;;;;;8417080;28;19932;-70
2022/03/29 09:49:52;;;;;;;;;;;9.90;98.60;;;;;;8412756;28;20359;-70
2022/03/29 09:53:58;;;;;;;;;;;10.00;98.30;;;;;;8410039;28;19928;-70
2022/03/29 09:58:00;;;;;;;;;;;10.10;98.40;;;;;;8421193;28;19931;-70
2022/03/29 10:02:02;;;;;;;;;;;10.20;98.40;;;;;;8417531;28;19976;-70
2022/03/29 10:06:05;;;;;;;;;;;10.30;98.50;;;;;;8414632;28;19924;-70
2022/03/29 10:10:07;;;;;;;;;;;10.30;98.40;;;;;;8400720;28;19924;-70
2022/03/29 10:14:12;;;;;;;;;;;10.30;98.60;;;;;;8395755;28;19932;-70
2022/03/29 10:18:14;;;;;;;;;;;10.30;98.70;;;;;;8388783;28;19935;-70
2022/03/29 10:22:16;;;;;;;;;;;10.30;98.60;;;;;;8408529;28;20000;-70
2022/03/29 10:26:21;;;;;;;;;;;10.20;98.50;;;;;;8420972;28;20454;-70
2022/03/29 10:30:32;;;;;;;;;;;10.10;98.50;;;;;;8411920;28;19924;-70
2022/03/29 10:34:37;;;;;;;;;;;10.10;98.80;;;;;;8422007;28;19924;-70
2022/03/29 10:38:48;;;;;;;;;;;10.20;99.00;;;;;;8398851;28;19931;-70
2022/03/29 10:42:50;;;;;;;;;;;10.50;99.40;;;;;;8418673;28;20346;-70
2022/03/29 10:46:52;;;;;;;;;;;10.80;99.90;;;;;;8421813;28;19924;-70
2022/03/29 10:50:57;;;;;;;;;;;11.10;99.90;;;;;;8418988;28;19924;-70
2022/03/29 10:55:17;;;;;;;;;;;11.40;99.90;;;;;;8403924;28;19928;-70
2022/03/29 10:59:19;;;;;;;;;;;12.10;99.90;;;;;;8398985;28;19939;-70
2022/03/29 11:03:21;;;;;;;;;;;13.00;99.90;;;;;;8423758;28;19931;-71
2022/03/29 11:07:23;;;;;;;;;;;13.70;99.90;;;;;;8417090;28;20440;-70
2022/03/29 11:11:41;;;;;;;;;;;14.40;99.90;;;;;;8424320;28;19935;-71
2022/03/29 11:15:43;;;;;;;;;;;15.10;99.90;;;;;;8422613;28;19931;-71
2022/03/29 11:19:48;;;;;;;;;;;16.10;99.90;;;;;;8424004;28;20283;-70
2022/03/29 11:23:50;;;;;;;;;;;16.90;99.90;;;;;;8424479;28;19924;-70
2022/03/29 11:27:52;;;;;;;;;;;17.40;99.90;;;;;;8420908;28;20386;-70
2022/03/29 11:31:56;;;;;;;;;;;17.70;99.90;;;;;;8420603;28;19947;-70
2022/03/29 11:35:58;;;;;;;;;;;17.90;99.90;;;;;;8419371;28;19935;-70
2022/03/29 11:40:01;;;;;;;;;;;18.10;99.90;;;;;;8415507;28;19954;-70
2022/03/29 11:44:05;;;;;;;;;;;18.40;99.90;;;;;;8421755;28;19924;-70
2022/03/29 11:48:11;;;;;;;;;;;18.70;99.90;;;;;;8403246;28;19939;-70
2022/03/29 11:52:14;;;;;;;;;;;18.80;99.90;;;;;;8411025;28;19950;-70
2022/03/29 11:56:19;;;;;;;;;;;18.70;99.90;;;;;;8403880;28;19929;-70
2022/03/29 12:00:25;;;;;;;;;;;18.40;99.90;;;;;;8421530;28;20011;-70
2022/03/29 12:04:26;;;;;;;;;;;18.30;99.90;;;;;;8419865;28;19924;-70
2022/03/29 12:08:54;;;;;;;;;;;18.50;99.90;;;;;;8427681;28;19924;-70
2022/03/29 12:12:56;;;;;;;;;;;18.40;99.90;;;;;;8415750;28;20337;-69
2022/03/29 12:17:06;;;;;;;;;;;18.20;99.90;;;;;;8419123;28;19931;-70
2022/03/29 12:21:12;;;;;;;;;;;18.00;99.90;;;;;;8416689;28;19927;-69
2022/03/29 12:25:13;;;;;;;;;;;17.80;99.90;;;;;;8404863;28;19924;-70
2022/03/29 12:29:23;;;;;;;;;;;17.90;99.90;;;;;;8420568;28;20401;-70
2022/03/29 12:33:24;;;;;;;;;;;18.10;99.90;;;;;;8420486;28;19924;-70
2022/03/29 12:37:27;;;;;;;;;;;18.30;99.90;;;;;;8393505;28;20409;-70
2022/03/29 12:41:37;;;;;;;;;;;18.60;99.90;;;;;;8395566;28;19924;-70
2022/03/29 12:45:40;;;;;;;;;;;18.90;99.90;;;;;;8419062;28;20382;-70
2022/03/29 12:49:43;;;;;;;;;;;18.90;98.50;;;;;;8412552;28;19925;-70
2022/03/29 12:53:55;;;;;;;;;;;18.80;97.60;;;;;;8414277;28;19925;-70
2022/03/29 12:58:02;;;;;;;;;;;18.90;96.70;;;;;;8422577;28;19931;-70
2022/03/29 13:02:10;;;;;;;;;;;18.90;95.30;;;;;;8413573;28;20388;-70
2022/03/29 13:06:12;;;;;;;;;;;19.00;94.40;;;;;;8418311;28;19924;-70
2022/03/29 13:10:15;;;;;;;;;;;19.00;93.60;;;;;;8417023;28;19939;-70
2022/03/29 13:14:19;;;;;;;;;;;19.10;92.70;;;;;;8423105;28;19924;-70
2022/03/29 13:18:25;;;;;;;;;;;19.10;92.20;;;;;;8399395;28;19931;-70
2022/03/29 13:22:46;;;;;;;;;;;19.20;91.80;;;;;;8417656;28;19963;-70
2022/03/29 13:26:49;;;;;;;;;;;19.30;91.20;;;;;;8413117;28;19997;-71
2022/03/29 13:30:51;;;;;;;;;;;19.30;91.00;;;;;;8401685;28;20402;-70
2022/03/29 13:34:53;;;;;;;;;;;19.50;90.60;;;;;;8422850;28;20594;-71
2022/03/29 13:38:57;;;;;;;;;;;19.70;91.00;;;;;;8426511;28;19927;-70
2022/03/29 13:42:58;;;;;;;;;;;19.90;91.20;;;;;;8424962;28;20351;-71
2022/03/29 13:47:00;;;;;;;;;;;20.00;90.60;;;;;;8421939;28;20390;-70
2022/03/29 13:51:07;;;;;;;;;;;20.10;90.50;;;;;;8425941;28;20050;-71
2022/03/29 13:55:08;;;;;;;;;;;20.10;89.30;;;;;;8409436;28;19936;-71
2022/03/29 13:59:10;;;;;;;;;;;20.10;89.00;;;;;;8422067;28;19932;-71
2022/03/29 14:03:13;;;;;;;;;;;20.20;87.60;;;;;;8402828;28;19924;-70
2022/03/29 14:07:14;;;;;;;;;;;20.30;87.50;;;;;;8427425;28;19932;-70
2022/03/29 14:11:16;;;;;;;;;;;20.50;86.90;;;;;;8423320;28;19932;-70
2022/03/29 14:15:19;;;;;;;;;;;20.90;88.10;;;;;;8425843;28;19924;-71
2022/03/29 14:19:20;;;;;;;;;;;21.60;91.80;;;;;;8406612;28;20407;-71
2022/03/29 14:23:27;;;;;;;;;;;22.70;94.50;;;;;;8436370;28;19928;-71
2022/03/29 14:27:29;;;;;;;;;;;23.60;94.50;;;;;;8424482;28;19931;-70
2022/03/29 14:31:32;;;;;;;;;;;23.80;93.10;;;;;;8405652;28;19931;-71
2022/03/29 14:35:34;;;;;;;;;;;23.90;90.90;;;;;;8424023;28;20043;-71
2022/03/29 14:39:36;;;;;;;;;;;24.00;90.70;;;;;;8391910;28;19940;-70
2022/03/29 14:43:37;;;;;;;;;;;24.20;91.40;;;;;;8390483;28;20825;-70
2022/03/29 14:47:40;;;;;;;;;;;24.30;90.30;;;;;;8373366;28;19939;-71
2022/03/29 14:51:41;;;;;;;;;;;24.20;87.70;;;;;;8392019;28;20081;-71
2022/03/29 14:55:43;;;;;;;;;;;24.70;86.40;;;;;;8390570;28;20402;-71
2022/03/29 14:59:45;;;;;;;;;;;24.90;84.60;;;;;;8391438;28;19928;-71
2022/03/29 15:03:46;;;;;;;;;;;24.60;82.60;;;;;;8394877;28;20355;-71
2022/03/29 15:07:49;;;;;;;;;;;24.20;78.00;;;;;;8374679;28;19928;-71
2022/03/29 15:11:51;;;;;;;;;;;23.70;78.20;;;;;;8389736;28;20384;-71
2022/03/29 15:15:52;;;;;;;;;;;23.60;76.60;;;;;;8388642;28;20372;-71
2022/03/29 15:19:54;;;;;;;;;;;24.00;78.30;;;;;;8383673;28;19928;-71
2022/03/29 15:23:56;;;;;;;;;;;24.30;79.60;;;;;;8374328;28;19931;-71
2022/03/29 15:27:57;;;;;;;;;;;24.30;78.00;;;;;;8391419;28;19933;-71
2022/03/29 15:32:01;;;;;;;;;;;24.20;76.30;;;;;;8390607;28;19928;-71
2022/03/29 15:36:03;;;;;;;;;;;24.20;74.90;;;;;;8389655;28;19972;-71
2022/03/29 15:40:05;;;;;;;;;;;24.20;75.10;;;;;;8389192;28;19939;-71
2022/03/29 15:44:08;;;;;;;;;;;24.00;73.30;;;;;;8385443;28;19939;-71
2022/03/29 15:48:10;;;;;;;;;;;23.50;69.50;;;;;;8365621;28;19928;-71
2022/03/29 15:52:11;;;;;;;;;;;22.80;67.40;;;;;;8386392;28;20263;-71
2022/03/29 15:56:13;;;;;;;;;;;22.70;68.10;;;;;;8389337;28;19932;-71
2022/03/29 16:00:15;;;;;;;;;;;22.50;67.20;;;;;;8384497;28;20232;-71
2022/03/29 16:04:17;;;;;;;;;;;22.60;67.80;;;;;;8382178;28;20573;-71
2022/03/29 16:08:21;;;;;;;;;;;22.60;67.10;;;;;;8385210;28;19924;-71
2022/03/29 16:12:22;;;;;;;;;;;22.10;64.40;;;;;;8365165;28;20237;-71
2022/03/29 16:16:24;;;;;;;;;;;21.60;64.40;;;;;;8367013;28;19970;-71
2022/03/29 16:20:26;;;;;;;;;;;21.20;63.80;;;;;;8384687;28;19936;-71
2022/03/29 16:24:28;;;;;;;;;;;20.80;63.00;;;;;;8384632;28;20007;-71
2022/03/29 16:28:49;;;;;;;;;;;20.50;62.60;;;;;;8382155;28;19952;-71
2022/03/29 16:32:51;;;;;;;;;;;20.20;61.80;;;;;;8385714;28;19932;-71
2022/03/29 16:36:53;;;;;;;;;;;19.80;60.70;;;;;;8391615;28;19928;-71
2022/03/29 16:40:55;;;;;;;;;;;19.70;61.00;;;;;;8390747;28;19929;-71
2022/03/29 16:44:57;;;;;;;;;;;19.90;61.60;;;;;;8374013;28;20290;-70
2022/03/29 16:48:59;;;;;;;;;;;19.90;60.90;;;;;;8391654;28;19986;-70
2022/03/29 16:53:00;;;;;;;;;;;19.50;59.80;;;;;;8400675;28;20387;-71
2022/03/29 16:57:03;;;;;;;;;;;19.10;59.00;;;;;;8371629;28;21017;-71
2022/03/29 17:01:05;;;;;;;;;;;18.60;58.60;;;;;;8371949;28;19929;-70
2022/03/29 17:05:07;;;;;;;;;;;18.20;58.30;;;;;;8376834;28;19931;-71
2022/03/29 17:09:10;;;;;;;;;;;17.90;58.00;;;;;;8385735;28;20002;-70
2022/03/29 17:13:11;;;;;;;;;;;17.70;57.90;;;;;;8392881;28;19928;-70
2022/03/29 17:17:13;;;;;;;;;;;17.40;57.50;;;;;;8389653;28;19929;-71
2022/03/29 17:21:15;;;;;;;;;;;17.10;57.40;;;;;;8391660;28;19939;-71
2022/03/29 17:25:18;;;;;;;;;;;16.90;57.40;;;;;;8389550;28;19928;-71
2022/03/29 17:29:21;;;;;;;;;;;16.70;57.30;;;;;;8389019;28;19928;-70
2022/03/29 17:33:23;;;;;;;;;;;16.60;57.20;;;;;;8372939;28;19935;-70
2022/03/29 17:37:25;;;;;;;;;;;16.40;57.30;;;;;;8389139;28;20390;-70
2022/03/29 17:41:28;;;;;;;;;;;16.30;57.40;;;;;;8388041;28;20291;-70
2022/03/29 17:45:30;;;;;;;;;;;16.20;57.30;;;;;;8369446;28;20018;-70
2022/03/29 17:49:32;;;;;;;;;;;16.10;57.10;;;;;;8388879;28;19936;-70
2022/03/29 17:53:35;;;;;;;;;;;16.00;56.80;;;;;;8388397;28;19943;-70
2022/03/29 17:57:36;;;;;;;;;;;15.80;56.70;;;;;;8386160;28;19947;-70
2022/03/29 18:01:38;;;;;;;;;;;15.70;56.70;;;;;;8369604;28;19935;-70
2022/03/29 18:05:40;;;;;;;;;;;15.60;56.60;;;;;;8388379;28;19936;-70
2022/03/29 18:09:42;;;;;;;;;;;15.50;56.50;;;;;;8386277;28;19932;-70
2022/03/29 18:13:44;;;;;;;;;;;15.40;56.40;;;;;;8385157;28;22404;-70
2022/03/29 18:17:46;;;;;;;;;;;15.20;56.30;;;;;;8390277;28;19932;-70
2022/03/29 18:21:47;;;;;;;;;;;15.00;56.30;;;;;;8391272;28;20023;-70
2022/03/29 18:25:50;;;;;;;;;;;14.90;56.50;;;;;;8391427;28;19932;-70
2022/03/29 18:29:52;;;;;;;;;;;14.70;56.70;;;;;;8381743;28;19928;-70
2022/03/29 18:33:54;;;;;;;;;;;14.50;57.00;;;;;;8377852;28;19924;-70
2022/03/29 18:37:55;;;;;;;;;;;14.30;57.30;;;;;;8393288;28;19947;-70
2022/03/29 18:41:58;;;;;;;;;;;14.20;57.60;;;;;;8391036;28;20433;-70
2022/03/29 18:45:59;;;;;;;;;;;14.10;58.00;;;;;;8388737;28;19932;-70
2022/03/29 18:50:21;;;;;;;;;;;14.00;57.90;;;;;;8387095;28;19963;-70
2022/03/29 18:54:23;;;;;;;;;;;13.90;58.10;;;;;;8373232;28;19932;-70
2022/03/29 18:58:25;;;;;;;;;;;13.90;58.40;;;;;;8388219;28;19932;-70
2022/03/29 19:02:26;;;;;;;;;;;13.80;58.50;;;;;;8389318;28;20322;-70
2022/03/29 19:06:29;;;;;;;;;;;13.70;58.90;;;;;;8386196;28;19932;-70
2022/03/29 19:10:31;;;;;;;;;;;13.50;59.40;;;;;;8392957;28;19951;-70
2022/03/29 19:14:33;;;;;;;;;;;13.30;59.60;;;;;;8399666;28;19928;-70
2022/03/29 19:18:35;;;;;;;;;;;13.20;59.60;;;;;;8398155;28;19931;-70
2022/03/29 19:22:37;;;;;;;;;;;13.20;59.70;;;;;;8399451;28;19931;-71
2022/03/29 19:26:39;;;;;;;;;;;13.00;59.80;;;;;;8393709;28;19946;-70
2022/03/29 19:30:41;;;;;;;;;;;12.90;60.00;;;;;;8398464;28;19931;-70
2022/03/29 19:34:43;;;;;;;;;;;12.80;60.10;;;;;;8402216;28;19928;-71
2022/03/29 19:39:05;;;;;;;;;;;12.70;60.30;;;;;;8382638;28;19970;-70
2022/03/29 19:43:26;;;;;;;;;;;12.60;60.30;;;;;;8398398;28;19928;-70
2022/03/29 19:47:30;;;;;;;;;;;12.50;60.20;;;;;;8394879;28;20456;-70
2022/03/29 19:51:32;;;;;;;;;;;12.40;60.60;;;;;;8389859;28;19950;-70
2022/03/29 19:55:34;;;;;;;;;;;12.30;60.70;;;;;;8392564;28;19953;-70
2022/03/29 19:59:35;;;;;;;;;;;12.10;61.20;;;;;;8377638;28;19928;-70
2022/03/29 20:03:37;;;;;;;;;;;12.00;61.50;;;;;;8382164;28;20279;-70
2022/03/29 20:07:40;;;;;;;;;;;11.90;61.90;;;;;;8391220;28;19928;-70
2022/03/29 20:11:42;;;;;;;;;;;11.80;62.10;;;;;;8393528;28;19929;-70
2022/03/29 20:15:44;;;;;;;;;;;11.70;62.30;;;;;;8391306;28;19939;-71
2022/03/29 20:19:49;;;;;;;;;;;11.60;62.30;;;;;;8393643;28;19932;-70
2022/03/29 20:23:51;;;;;;;;;;;11.50;62.60;;;;;;8394477;28;19932;-70
2022/03/29 20:27:53;;;;;;;;;;;11.50;62.90;;;;;;8386144;28;19936;-70
2022/03/29 20:31:59;;;;;;;;;;;11.30;63.00;;;;;;8397273;28;19943;-70
2022/03/29 20:36:01;;;;;;;;;;;11.30;63.10;;;;;;8377422;28;19928;-70
2022/03/29 20:40:03;;;;;;;;;;;11.20;63.10;;;;;;8393882;28;19932;-70
2022/03/29 20:44:05;;;;;;;;;;;11.10;63.20;;;;;;8393780;28;19924;-70
2022/03/29 20:48:07;;;;;;;;;;;11.00;63.30;;;;;;8395070;28;19955;-70
2022/03/29 20:52:09;;;;;;;;;;;10.90;63.10;;;;;;8379173;28;20516;-70
2022/03/29 20:56:12;;;;;;;;;;;10.80;63.30;;;;;;8391941;28;19932;-70
2022/03/29 21:00:14;;;;;;;;;;;10.70;63.20;;;;;;8394137;28;19927;-71
2022/03/29 21:04:16;;;;;;;;;;;10.60;63.20;;;;;;8409385;28;19947;-70
2022/03/29 21:08:17;;;;;;;;;;;10.50;63.00;;;;;;8408140;28;19924;-70
2022/03/29 21:12:21;;;;;;;;;;;10.50;63.00;;;;;;8403557;28;19950;-70
2022/03/29 21:16:22;;;;;;;;;;;10.40;63.00;;;;;;8407057;28;19932;-70
2022/03/29 21:20:24;;;;;;;;;;;10.40;63.00;;;;;;8414677;28;19924;-70
2022/03/29 21:24:26;;;;;;;;;;;10.30;62.80;;;;;;8409811;28;19935;-70
2022/03/29 21:28:31;;;;;;;;;;;10.20;62.90;;;;;;8395160;28;19928;-70
2022/03/29 21:32:34;;;;;;;;;;;10.20;63.00;;;;;;8403134;28;19932;-70
2022/03/29 21:36:35;;;;;;;;;;;10.10;63.20;;;;;;8403515;28;19931;-70
2022/03/29 21:40:43;;;;;;;;;;;10.00;63.20;;;;;;8404803;28;19924;-69
2022/03/29 21:44:45;;;;;;;;;;;9.90;64.30;;;;;;8407213;28;20636;-70
2022/03/29 21:48:47;;;;;;;;;;;9.80;64.20;;;;;;8411742;28;19924;-70
2022/03/29 21:52:48;;;;;;;;;;;9.70;64.10;;;;;;8392150;28;19932;-70
2022/03/29 21:56:50;;;;;;;;;;;9.60;64.00;;;;;;8409131;28;19931;-69
2022/03/29 22:00:53;;;;;;;;;;;9.50;64.00;;;;;;8410005;28;21764;-70
2022/03/29 22:04:56;;;;;;;;;;;9.40;64.00;;;;;;8418189;28;19932;-70
2022/03/29 22:08:57;;;;;;;;;;;9.30;63.80;;;;;;8412597;28;19928;-70
2022/03/29 22:12:59;;;;;;;;;;;9.20;63.80;;;;;;8420848;28;20000;-70
2022/03/29 22:17:01;;;;;;;;;;;9.20;64.00;;;;;;8416355;28;20407;-70
2022/03/29 22:21:02;;;;;;;;;;;9.10;64.00;;;;;;8416724;28;19924;-69
2022/03/29 22:25:04;;;;;;;;;;;8.90;64.10;;;;;;8417730;28;19924;-70
2022/03/29 22:29:06;;;;;;;;;;;8.90;64.20;;;;;;8411984;28;19940;-70
2022/03/29 22:33:08;;;;;;;;;;;8.80;64.20;;;;;;8421243;28;19931;-69
2022/03/29 22:37:10;;;;;;;;;;;8.80;64.10;;;;;;8406515;28;19939;-69
2022/03/29 22:41:12;;;;;;;;;;;8.80;64.20;;;;;;8411897;28;19928;-69
2022/03/29 22:45:14;;;;;;;;;;;8.70;64.20;;;;;;8414950;28;19924;-70
2022/03/29 22:49:16;;;;;;;;;;;8.60;64.20;;;;;;8412659;28;20391;-70
2022/03/29 22:53:18;;;;;;;;;;;8.60;64.40;;;;;;8407229;28;19924;-70
2022/03/29 22:57:20;;;;;;;;;;;8.50;64.50;;;;;;8393085;28;19935;-70
2022/03/29 23:01:22;;;;;;;;;;;8.50;64.80;;;;;;8417764;28;19923;-70
2022/03/29 23:05:23;;;;;;;;;;;8.40;65.20;;;;;;8415011;28;19924;-69
2022/03/29 23:09:25;;;;;;;;;;;8.40;65.60;;;;;;8392286;28;20310;-69
2022/03/29 23:13:27;;;;;;;;;;;8.40;66.60;;;;;;8413029;28;19932;-70
2022/03/29 23:17:28;;;;;;;;;;;8.30;67.00;;;;;;8413469;28;19947;-69
2022/03/29 23:21:30;;;;;;;;;;;8.30;67.40;;;;;;8420096;28;19986;-69
2022/03/29 23:25:31;;;;;;;;;;;8.30;67.60;;;;;;8420699;28;19994;-70
2022/03/29 23:29:33;;;;;;;;;;;8.20;67.60;;;;;;8398440;28;19931;-70
2022/03/29 23:33:35;;;;;;;;;;;8.10;67.60;;;;;;8401043;28;20368;-70
2022/03/29 23:37:37;;;;;;;;;;;8.10;67.90;;;;;;8403988;28;20385;-69
2022/03/29 23:41:38;;;;;;;;;;;8.00;68.00;;;;;;8409593;28;19928;-70
2022/03/29 23:45:40;;;;;;;;;;;8.00;67.90;;;;;;8426728;28;19940;-69
2022/03/29 23:49:42;;;;;;;;;;;7.90;67.60;;;;;;8410013;28;19932;-69